Virtual Washington ARTCC

Weather

KBWI 211954Z 32013G21KT 10SM FEW060 12/M02 A3010 RMK AO2 SLP194 T01171022
KDCA 211952Z 32015G22KT 10SM BKN050 12/M01 A3014 RMK AO2 PK WND 32026/1857 SLP208 T01221006
KIAD 211952Z 30015G27KT 10SM BKN047 09/M01 A3016 RMK AO2 PK WND 30027/1946 SLP212 P0000 T00941011
KORF 211951Z 35013KT 10SM CLR 13/00 A3012 RMK AO2 SLP198 T01330000
KRDU 211951Z 27009KT 240V320 10SM CLR 14/M02 A3017 RMK AO2 SLP215 T01391017

TOP FIVE CONTROLLERS


Stats for 2018-10-01 to 2018-10-31
#Name:Hours:
1Tim Evans43.82
2Jared West30.72
3Lewis Gilkes20.58
4Aminu Alibe13.93
5Robert Shearman Jr11.42
Stats for 2018-9-01 to 2018-9-31
#Name:Hours:
1Tim Evans40.62
2Jared West38.54
3Robert Shearman Jr26.17
4Jaden Herman18.60
5Brandon Shaw16.80

Events



ZDC Activity

No controllers online.

News



The information contained on all pages of this website is to be used for flight simulation purposes only on the VATSIM network. It is not intended nor should it be used for real world navigation.This site is not affiliated with the FAA, the actual Washington Center or any governing aviation body. All content contained herein is approved only for use on the VATSIM network. ©2016 Virtual Washington ARTCC -- Source Code © 2016-2017 W. Guisbond and R. Rump.
By using this website you agree to all VATSIM Privacy Regulations as can be found on https://www.vatsim.net/documents/privacy-policy. This website uses cookie$